Time;durP1;ratioP1;P1;durP2;ratioP2;P2;SDS_P1;SDS_P2;PMS_P1;PMS_P2;Temp;Humidity;BMP_temperature;BMP_pressure;BME280_temperature;BME280_humidity;BME280_pressure;Samples;Min_cycle;Max_cycle;Signal;HPM_P1;HPM_P2
2023/08/01 00:01:19;;;;;;;;;;;;;;;23.81;51.61;99472.94;2290531;77;50663;-76
2023/08/01 00:04:21;;;;;;;;;;;;;;;23.79;51.62;99465.64;2291272;77;50256;-75
2023/08/01 00:07:22;;;;;;;;;;;;;;;23.80;51.60;99466.45;2235076;77;51151;-75
2023/08/01 00:10:24;;;;;;;;;;;;;;;23.81;51.62;99462.67;2259124;77;50220;-75
2023/08/01 00:13:26;;;;;;;;;;;;;;;23.81;51.61;99454.56;2292167;77;50367;-75
2023/08/01 00:16:27;;;;;;;;;;;;;;;23.81;51.57;99454.56;2300282;75;50773;-76
2023/08/01 00:19:29;;;;;;;;;;;;;;;23.81;51.56;99439.17;2309293;76;50775;-76
2023/08/01 00:22:30;;;;;;;;;;;;;;;23.81;51.57;99445.11;2309392;76;51432;-76
2023/08/01 00:25:32;;;;;;;;;;;;;;;23.80;51.56;99440.25;2321548;75;50354;-75
2023/08/01 00:28:34;;;;;;;;;;;;;;;23.81;51.58;99434.30;2321355;75;50624;-75
2023/08/01 00:31:35;;;;;;;;;;;;;;;23.79;51.58;99433.22;2312983;76;51240;-74
2023/08/01 00:34:37;;;;;;;;;;;;;;;23.80;51.57;99436.73;2299163;76;50062;-75
2023/08/01 00:45:08;;;;;;;;;;;;;;;23.79;51.58;99429.17;2333809;75;22343;-75
2023/08/01 00:48:09;;;;;;;;;;;;;;;23.79;51.59;99417.52;2315483;75;50731;-75
2023/08/01 00:51:12;;;;;;;;;;;;;;;23.79;51.60;99400.81;2282908;78;51512;-74
2023/08/01 00:54:13;;;;;;;;;;;;;;;23.78;51.58;99392.41;2282815;77;50697;-75
2023/08/01 00:57:15;;;;;;;;;;;;;;;23.77;51.61;99390.78;2282765;76;51508;-74
2023/08/01 01:00:16;;;;;;;;;;;;;;;23.77;51.60;99392.67;2283041;78;51536;-75
2023/08/01 01:03:18;;;;;;;;;;;;;;;23.76;51.60;99385.08;2299236;75;51461;-75
2023/08/01 01:06:24;;;;;;;;;;;;;;;23.77;51.60;99381.86;2300693;76;50711;-74
2023/08/01 01:09:27;;;;;;;;;;;;;;;23.76;51.60;99378.32;2280735;77;51871;-75
2023/08/01 01:12:29;;;;;;;;;;;;;;;23.77;51.60;99369.70;2301660;77;50513;-75
2023/08/01 01:15:31;;;;;;;;;;;;;;;23.78;51.54;99370.80;2288577;75;50208;-76
2023/08/01 01:18:33;;;;;;;;;;;;;;;23.78;51.54;99376.20;2342227;76;50833;-75
2023/08/01 01:21:41;;;;;;;;;;;;;;;23.77;51.56;99360.25;2327413;76;52659;-76
2023/08/01 01:24:42;;;;;;;;;;;;;;;23.76;51.53;99360.77;2349420;76;50093;-76
2023/08/01 01:27:45;;;;;;;;;;;;;;;23.76;51.53;99345.91;2349180;74;50724;-77
2023/08/01 01:30:47;;;;;;;;;;;;;;;23.77;51.56;99335.95;2346643;76;50439;-76
2023/08/01 01:33:48;;;;;;;;;;;;;;;23.76;51.54;99305.39;2330698;76;50748;-76
2023/08/01 01:36:50;;;;;;;;;;;;;;;23.75;51.53;99307.83;2338414;75;50257;-76
2023/08/01 01:39:52;;;;;;;;;;;;;;;23.76;51.53;99305.94;2309050;76;50312;-76
2023/08/01 01:42:53;;;;;;;;;;;;;;;23.76;51.51;99296.48;2339243;76;50366;-76
2023/08/01 01:45:55;;;;;;;;;;;;;;;23.75;51.53;99303.77;2310277;75;49634;-75
2023/08/01 01:48:57;;;;;;;;;;;;;;;23.76;51.50;99303.23;2338611;76;50213;-76
2023/08/01 01:51:59;;;;;;;;;;;;;;;23.75;51.52;99298.91;2338553;76;51522;-76
2023/08/01 01:55:01;;;;;;;;;;;;;;;23.75;51.50;99307.02;2309017;76;51505;-76
2023/08/01 01:58:02;;;;;;;;;;;;;;;23.75;51.50;99296.21;2283588;76;51207;-76
2023/08/01 02:01:04;;;;;;;;;;;;;;;23.76;51.48;99292.43;2306124;76;50570;-76
2023/08/01 02:04:05;;;;;;;;;;;;;;;23.76;51.49;99285.68;2318929;76;51518;-76
2023/08/01 02:07:08;;;;;;;;;;;;;;;23.74;51.51;99273.80;2305194;76;51504;-77
2023/08/01 02:10:10;;;;;;;;;;;;;;;23.76;51.50;99265.42;2286467;77;50340;-76
2023/08/01 02:13:11;;;;;;;;;;;;;;;23.75;51.48;99248.41;2286208;77;50706;-76
2023/08/01 02:16:13;;;;;;;;;;;;;;;23.74;51.49;99248.14;2286073;77;50681;-77
2023/08/01 02:19:14;;;;;;;;;;;;;;;23.75;51.45;99238.95;2256097;78;51573;-76
2023/08/01 02:22:16;;;;;;;;;;;;;;;23.75;51.49;99235.44;2252579;78;51201;-76
2023/08/01 02:25:18;;;;;;;;;;;;;;;23.75;51.46;99228.69;2283005;78;50405;-77
2023/08/01 02:28:19;;;;;;;;;;;;;;;23.74;51.46;99235.14;2252201;78;50270;-77
2023/08/01 02:31:21;;;;;;;;;;;;;;;23.74;51.47;99220.28;2266888;76;50642;-77
2023/08/01 02:34:22;;;;;;;;;;;;;;;23.74;51.44;99217.08;2297075;76;51671;-76
2023/08/01 02:37:24;;;;;;;;;;;;;;;23.75;51.49;99215.19;2328016;76;51547;-76
2023/08/01 02:40:26;;;;;;;;;;;;;;;23.74;51.45;99209.48;2296763;76;51572;-77
2023/08/01 02:43:28;;;;;;;;;;;;;;;23.75;51.45;99219.23;2328468;76;50294;-76
2023/08/01 02:46:31;;;;;;;;;;;;;;;23.74;51.42;99209.48;2255273;76;51701;-76
2023/08/01 02:49:32;;;;;;;;;;;;;;;23.73;51.45;99203.27;2297075;76;52300;-76
2023/08/01 02:52:34;;;;;;;;;;;;;;;23.73;51.45;99205.16;2328332;76;50257;-76
2023/08/01 02:55:36;;;;;;;;;;;;;;;23.73;51.42;99199.22;2296896;76;50402;-76
2023/08/01 02:58:37;;;;;;;;;;;;;;;23.73;51.43;99201.92;2255197;76;49566;-76
2023/08/01 03:01:39;;;;;;;;;;;;;;;23.73;51.44;99199.77;2296397;76;51568;-77
2023/08/01 03:04:40;;;;;;;;;;;;;;;23.73;51.42;99198.41;2332796;76;50636;-76
2023/08/01 03:07:42;;;;;;;;;;;;;;;23.72;51.43;99189.50;2334459;75;51280;-76
2023/08/01 03:10:44;;;;;;;;;;;;;;;23.72;51.42;99179.20;2305340;76;51375;-76
2023/08/01 03:13:45;;;;;;;;;;;;;;;23.73;51.42;99175.45;2334788;76;51490;-76
2023/08/01 03:16:47;;;;;;;;;;;;;;;23.72;51.42;99171.10;2305139;76;51426;-76
2023/08/01 03:19:49;;;;;;;;;;;;;;;23.71;51.43;99174.31;2349158;75;51485;-76
2023/08/01 03:22:50;;;;;;;;;;;;;;;23.70;51.45;99168.10;2340688;75;51548;-76
2023/08/01 03:25:52;;;;;;;;;;;;;;;23.72;51.41;99153.55;2317877;74;51712;-76
2023/08/01 03:28:54;;;;;;;;;;;;;;;23.72;51.40;99158.95;2344806;76;50649;-75
2023/08/01 03:31:55;;;;;;;;;;;;;;;23.72;51.40;99157.59;2325044;76;53305;-76
2023/08/01 03:34:57;;;;;;;;;;;;;;;23.72;51.42;99163.00;2345080;75;50661;-76
2023/08/01 03:37:58;;;;;;;;;;;;;;;23.72;51.39;99149.50;2324832;75;50718;-75
2023/08/01 03:41:00;;;;;;;;;;;;;;;23.70;51.41;99147.84;2345072;76;52240;-76
2023/08/01 03:44:02;;;;;;;;;;;;;;;23.71;51.40;99144.61;2345119;76;50312;-76
2023/08/01 03:47:04;;;;;;;;;;;;;;;23.72;51.40;99145.45;2324744;75;50895;-77
2023/08/01 03:50:06;;;;;;;;;;;;;;;23.70;51.41;99146.50;2325152;76;51231;-76
2023/08/01 03:53:07;;;;;;;;;;;;;;;23.72;51.40;99146.80;2324780;76;50228;-76
2023/08/01 03:56:09;;;;;;;;;;;;;;;23.72;51.37;99138.70;2338265;75;50296;-76
2023/08/01 03:59:11;;;;;;;;;;;;;;;23.70;51.38;99139.75;2334972;76;50290;-76
2023/08/01 04:02:13;;;;;;;;;;;;;;;23.70;51.41;99142.45;2305641;76;52376;-76
2023/08/01 04:05:14;;;;;;;;;;;;;;;23.70;51.37;99139.75;2305925;76;51451;-77
2023/08/01 04:08:16;;;;;;;;;;;;;;;23.72;51.35;99142.75;2305622;76;52176;-76
2023/08/01 04:11:17;;;;;;;;;;;;;;;23.70;51.36;99149.20;2306193;76;51437;-76
2023/08/01 04:14:19;;;;;;;;;;;;;;;23.70;51.37;99135.70;2306036;76;51395;-76
2023/08/01 04:17:21;;;;;;;;;;;;;;;23.70;51.37;99133.00;2305773;76;50145;-76
2023/08/01 04:20:22;;;;;;;;;;;;;;;23.71;51.36;99124.35;2320035;74;51491;-76
2023/08/01 04:23:24;;;;;;;;;;;;;;;23.72;51.36;99127.38;2352583;75;51488;-77
2023/08/01 04:26:25;;;;;;;;;;;;;;;23.70;51.37;99124.89;2302045;75;49534;-76
2023/08/01 04:29:27;;;;;;;;;;;;;;;23.69;51.39;99117.87;2330696;75;50234;-76
2023/08/01 04:32:28;;;;;;;;;;;;;;;23.72;51.35;99122.49;2330643;74;50270;-76
2023/08/01 04:35:30;;;;;;;;;;;;;;;23.69;51.37;99132.72;2330638;74;52578;-76
2023/08/01 04:38:32;;;;;;;;;;;;;;;23.70;51.35;99119.49;2360552;74;50379;-76
2023/08/01 04:41:33;;;;;;;;;;;;;;;23.70;51.37;99123.55;2330855;75;51530;-76
2023/08/01 04:44:35;;;;;;;;;;;;;;;23.70;51.36;99112.73;2330573;75;51605;-76
2023/08/01 04:47:36;;;;;;;;;;;;;;;23.69;51.37;99116.52;2330956;75;50072;-76
2023/08/01 04:50:38;;;;;;;;;;;;;;;23.69;51.37;99111.13;2360737;75;51527;-76
2023/08/01 04:53:40;;;;;;;;;;;;;;;23.69;51.36;99104.38;2319567;75;50665;-75
2023/08/01 04:56:41;;;;;;;;;;;;;;;23.69;51.37;99094.92;2329135;75;50237;-75
2023/08/01 04:59:43;;;;;;;;;;;;;;;23.69;51.35;99093.57;2336146;75;49917;-76
2023/08/01 05:02:44;;;;;;;;;;;;;;;23.69;51.35;99089.52;2310070;75;51281;-75
2023/08/01 05:05:46;;;;;;;;;;;;;;;23.69;51.35;99084.66;2356423;74;50626;-77
2023/08/01 05:08:47;;;;;;;;;;;;;;;23.68;51.36;99079.77;2336134;75;50631;-76
2023/08/01 05:11:49;;;;;;;;;;;;;;;23.69;51.35;99071.16;2356531;75;51441;-76
2023/08/01 05:14:51;;;;;;;;;;;;;;;23.70;51.34;99072.23;2309993;75;52458;-76
2023/08/01 05:17:53;;;;;;;;;;;;;;;23.70;51.34;99075.47;2333954;75;51427;-76
2023/08/01 05:20:55;;;;;;;;;;;;;;;23.69;51.35;99067.91;2289613;76;50327;-77
2023/08/01 05:23:56;;;;;;;;;;;;;;;23.67;51.33;99060.59;2255938;77;49957;-76
2023/08/01 05:26:58;;;;;;;;;;;;;;;23.68;51.33;99055.47;2230095;77;49657;-76
2023/08/01 05:29:59;;;;;;;;;;;;;;;23.68;51.33;99051.41;2256744;77;50892;-76
2023/08/01 05:33:01;;;;;;;;;;;;;;;23.70;51.32;99049.82;2256668;76;51544;-75
2023/08/01 05:36:03;;;;;;;;;;;;;;;23.68;51.34;99051.41;2256615;76;50363;-77
2023/08/01 05:39:04;;;;;;;;;;;;;;;23.69;51.34;99047.66;2232153;77;50974;-75
2023/08/01 05:42:08;;;;;;;;;;;;;;;23.70;51.32;99049.82;2256534;77;50311;-76
2023/08/01 05:45:11;;;;;;;;;;;;;;;23.69;51.34;99052.25;2289581;77;22349;-75
2023/08/01 05:48:13;;;;;;;;;;;;;;;23.68;51.34;99041.96;2257118;77;51602;-75
2023/08/01 05:51:15;;;;;;;;;;;;;;;23.69;51.34;99046.31;2256659;77;51755;-75
2023/08/01 05:54:16;;;;;;;;;;;;;;;23.68;51.36;99040.61;2255653;77;50661;-76
2023/08/01 05:57:18;;;;;;;;;;;;;;;23.68;51.35;99041.96;2261599;77;51450;-76
2023/08/01 06:00:22;;;;;;;;;;;;;;;23.68;51.35;99039.27;2283694;78;51587;-77
2023/08/01 06:03:24;;;;;;;;;;;;;;;23.69;51.35;99032.00;2251054;78;51286;-75
2023/08/01 06:06:25;;;;;;;;;;;;;;;23.69;51.33;99031.45;2283505;76;50210;-75
2023/08/01 06:09:27;;;;;;;;;;;;;;;23.68;51.35;99040.61;2251146;78;50339;-76
2023/08/01 06:12:28;;;;;;;;;;;;;;;23.68;51.33;99040.61;2251066;78;50254;-76
2023/08/01 06:15:30;;;;;;;;;;;;;;;23.67;51.34;99045.74;2250823;76;52291;-76
2023/08/01 06:18:32;;;;;;;;;;;;;;;23.68;51.32;99044.66;2253825;76;51563;-77
2023/08/01 06:21:33;;;;;;;;;;;;;;;23.69;51.31;99036.05;2282323;77;50384;-75
2023/08/01 06:24:35;;;;;;;;;;;;;;;23.68;51.29;99046.02;2308962;75;50612;-76
2023/08/01 06:27:37;;;;;;;;;;;;;;;23.68;51.32;99029.81;2313236;75;51609;-75
2023/08/01 06:30:39;;;;;;;;;;;;;;;23.68;51.29;99019.00;2313402;77;51454;-76
2023/08/01 06:33:41;;;;;;;;;;;;;;;23.69;51.34;99022.55;2313475;77;51523;-76
2023/08/01 06:36:42;;;;;;;;;;;;;;;23.68;51.35;99018.20;2313707;75;50307;-76
2023/08/01 06:39:44;;;;;;;;;;;;;;;23.67;51.34;99024.14;2254934;77;51669;-76
2023/08/01 06:42:45;;;;;;;;;;;;;;;23.68;51.33;99023.06;2282046;77;51487;-75
2023/08/01 06:45:47;;;;;;;;;;;;;;;23.68;51.31;99021.70;2313290;75;51440;-75
2023/08/01 06:48:48;;;;;;;;;;;;;;;23.69;51.31;99029.30;2313202;77;51490;-75
2023/08/01 06:51:50;;;;;;;;;;;;;;;23.69;51.31;99019.84;2306395;77;50991;-75
2023/08/01 06:54:52;;;;;;;;;;;;;;;23.69;51.30;99022.55;2281907;77;51497;-76
2023/08/01 06:57:53;;;;;;;;;;;;;;;23.68;51.32;99021.70;2313074;75;50336;-75
2023/08/01 07:00:55;;;;;;;;;;;;;;;23.68;51.31;99020.36;2281922;77;51435;-75
2023/08/01 07:03:56;;;;;;;;;;;;;;;23.67;51.32;99022.80;2257197;77;52466;-76
2023/08/01 07:06:58;;;;;;;;;;;;;;;23.67;51.29;99017.39;2305055;76;50349;-77
2023/08/01 07:10:00;;;;;;;;;;;;;;;23.69;51.32;99017.15;2264305;77;51534;-76
2023/08/01 07:13:04;;;;;;;;;;;;;;;23.69;51.31;99022.55;2261801;77;50626;-77
2023/08/01 07:16:05;;;;;;;;;;;;;;;23.69;51.30;99019.84;2261684;76;52363;-76
2023/08/01 07:19:07;;;;;;;;;;;;;;;23.69;51.29;99027.41;2260108;76;53171;-76
2023/08/01 07:22:09;;;;;;;;;;;;;;;23.68;51.27;99019.00;2280615;76;51383;-76
2023/08/01 07:25:11;;;;;;;;;;;;;;;23.68;51.32;99021.70;2280552;78;50725;-76
2023/08/01 07:28:12;;;;;;;;;;;;;;;23.69;51.31;99017.95;2243826;78;52422;-76
2023/08/01 07:31:14;;;;;;;;;;;;;;;23.70;51.30;99024.16;2280473;77;51432;-76
2023/08/01 07:34:16;;;;;;;;;;;;;;;23.70;51.30;99020.11;2280479;76;50200;-76
2023/08/01 07:37:17;;;;;;;;;;;;;;;23.70;51.30;99002.02;2297165;75;50368;-76
2023/08/01 07:40:19;;;;;;;;;;;;;;;23.72;51.29;98998.27;2274018;76;51117;-77
2023/08/01 07:43:20;;;;;;;;;;;;;;;23.72;51.30;98991.52;2333077;76;50685;-77
2023/08/01 07:46:22;;;;;;;;;;;;;;;23.72;51.32;98990.16;2332776;75;51482;-77
2023/08/01 07:49:23;;;;;;;;;;;;;;;23.72;51.33;99003.66;2333128;76;50659;-77
2023/08/01 07:52:25;;;;;;;;;;;;;;;23.74;51.36;99008.28;2273640;76;52545;-77
2023/08/01 07:55:27;;;;;;;;;;;;;;;23.74;51.32;98994.78;2333072;75;51487;-77
2023/08/01 07:58:30;;;;;;;;;;;;;;;23.74;51.33;99002.87;2332768;76;52284;-77
2023/08/01 08:01:31;;;;;;;;;;;;;;;23.74;51.33;98988.87;2332083;75;51559;-77
2023/08/01 08:04:33;;;;;;;;;;;;;;;23.75;51.36;98979.68;2298570;76;51041;-77
2023/08/01 08:07:35;;;;;;;;;;;;;;;23.77;51.30;98977.54;2305392;75;51515;-77
2023/08/01 08:10:36;;;;;;;;;;;;;;;23.77;51.33;98971.33;2277461;77;51456;-77
2023/08/01 08:13:38;;;;;;;;;;;;;;;23.76;51.33;98970.49;2258122;78;51486;-77
2023/08/01 08:16:40;;;;;;;;;;;;;;;23.77;51.35;98968.09;2232964;78;51201;-77
2023/08/01 08:19:41;;;;;;;;;;;;;;;23.79;51.35;98970.52;2277445;77;50293;-77
2023/08/01 08:22:43;;;;;;;;;;;;;;;23.80;51.36;98973.51;2277573;77;51431;-77
2023/08/01 08:25:47;;;;;;;;;;;;;;;23.81;51.40;98975.13;2257671;77;49832;-77
2023/08/01 08:28:49;;;;;;;;;;;;;;;23.83;51.35;98971.09;2257941;78;51021;-77
2023/08/01 08:31:51;;;;;;;;;;;;;;;23.83;51.46;98975.69;2277431;77;51537;-77
2023/08/01 08:34:52;;;;;;;;;;;;;;;23.81;51.55;98983.23;2257843;78;50409;-77
2023/08/01 08:37:54;;;;;;;;;;;;;;;23.82;51.57;98979.48;2320135;75;49925;-77
2023/08/01 08:41:07;;;;;;;;;;;;;;;23.84;51.50;98975.95;2269709;76;51276;-77
2023/08/01 08:44:09;;;;;;;;;;;;;;;23.88;51.45;98973.02;2319424;76;50683;-76
2023/08/01 08:47:11;;;;;;;;;;;;;;;23.86;51.47;98979.22;2319027;75;51432;-77
2023/08/01 08:50:13;;;;;;;;;;;;;;;23.88;51.46;98979.78;2319602;76;51450;-77
2023/08/01 08:53:15;;;;;;;;;;;;;;;23.89;51.47;98978.70;2307851;76;52445;-77
2023/08/01 08:56:16;;;;;;;;;;;;;;;23.89;51.45;98984.09;2319074;75;51656;-77
2023/08/01 08:59:18;;;;;;;;;;;;;;;23.88;51.50;98980.59;2319284;76;51457;-77
2023/08/01 09:02:19;;;;;;;;;;;;;;;23.88;51.52;98975.19;2319279;76;51352;-77
2023/08/01 09:05:21;;;;;;;;;;;;;;;23.89;51.48;98969.23;2307970;76;52424;-76
2023/08/01 09:08:24;;;;;;;;;;;;;;;23.88;51.49;98975.19;2321139;75;50746;-77
2023/08/01 09:11:25;;;;;;;;;;;;;;;23.89;51.48;98979.53;2321124;76;51525;-77
2023/08/01 09:14:27;;;;;;;;;;;;;;;23.88;51.50;98968.44;2321139;75;50255;-77
2023/08/01 09:17:29;;;;;;;;;;;;;;;23.90;51.51;98968.99;2308791;76;51327;-77
2023/08/01 09:20:30;;;;;;;;;;;;;;;23.92;51.47;98948.48;2321269;75;52173;-77
2023/08/01 09:23:32;;;;;;;;;;;;;;;23.91;51.50;98951.70;2321372;76;50638;-77
2023/08/01 09:26:33;;;;;;;;;;;;;;;23.93;51.49;98951.45;2309013;76;51344;-77
2023/08/01 09:29:35;;;;;;;;;;;;;;;23.94;51.51;98947.67;2283260;76;52213;-77
2023/08/01 09:32:37;;;;;;;;;;;;;;;23.96;51.50;98949.58;2321284;76;51601;-77
2023/08/01 09:35:39;;;;;;;;;;;;;;;23.95;51.54;98947.96;2321284;75;51559;-77
2023/08/01 09:38:41;;;;;;;;;;;;;;;23.95;51.56;98951.20;2321280;76;51479;-76
2023/08/01 09:41:42;;;;;;;;;;;;;;;23.90;51.63;98946.58;2309264;76;52483;-77
2023/08/01 09:44:46;;;;;;;;;;;;;;;23.90;51.68;98956.03;2321441;76;51410;-76
2023/08/01 09:47:47;;;;;;;;;;;;;;;23.91;51.67;98968.45;2321053;75;51597;-76
2023/08/01 09:50:49;;;;;;;;;;;;;;;23.91;51.65;98965.75;2321282;76;51430;-77
2023/08/01 09:53:55;;;;;;;;;;;;;;;23.90;51.63;98964.13;2321314;76;51495;-76
2023/08/01 09:56:55;;;;;;;;;;;;;;;23.92;51.60;98963.34;2308549;76;22460;-77
2023/08/01 09:59:57;;;;;;;;;;;;;;;23.93;51.59;98952.80;2309158;76;50240;-76
2023/08/01 10:03:04;;;;;;;;;;;;;;;23.93;51.54;98952.80;2321279;76;51425;-77
2023/08/01 10:06:02;;;;;;;;;;;;;;;23.94;51.53;98971.17;2320511;75;22981;-76
2023/08/01 10:09:04;;;;;;;;;;;;;;;23.92;51.60;98963.34;2301901;76;50770;-76
2023/08/01 10:12:06;;;;;;;;;;;;;;;23.93;51.57;98959.55;2321288;75;51483;-76
2023/08/01 10:15:08;;;;;;;;;;;;;;;23.94;51.57;98967.92;2321325;76;51489;-76
2023/08/01 10:18:09;;;;;;;;;;;;;;;23.94;51.61;98959.82;2308776;76;51640;-76
2023/08/01 10:21:13;;;;;;;;;;;;;;;23.93;51.63;98956.05;2329821;75;50108;-76
2023/08/01 10:24:14;;;;;;;;;;;;;;;23.91;51.62;98961.70;2343346;75;50486;-77
2023/08/01 10:27:18;;;;;;;;;;;;;;;23.89;51.64;98963.84;2344303;74;51491;-77
2023/08/01 10:30:21;;;;;;;;;;;;;;;23.89;51.66;98951.69;2324441;76;52578;-77
2023/08/01 10:33:24;;;;;;;;;;;;;;;23.88;51.65;98948.72;2343993;75;51529;-77
2023/08/01 10:36:29;;;;;;;;;;;;;;;23.90;51.63;98948.73;2323112;75;50768;-77
2023/08/01 10:39:30;;;;;;;;;;;;;;;23.90;51.59;98948.73;2316268;76;51520;-77
2023/08/01 10:42:39;;;;;;;;;;;;;;;23.90;51.61;98943.88;2308632;76;52481;-77
2023/08/01 10:45:41;;;;;;;;;;;;;;;23.90;51.57;98950.09;2308510;75;50828;-77
2023/08/01 10:48:44;;;;;;;;;;;;;;;23.90;51.59;98958.73;2337935;76;50621;-76
2023/08/01 10:51:45;;;;;;;;;;;;;;;23.90;51.59;98968.19;2334502;76;50709;-76
2023/08/01 10:54:47;;;;;;;;;;;;;;;23.88;51.64;99002.73;2308416;76;52474;-76
2023/08/01 10:57:49;;;;;;;;;;;;;;;23.86;51.68;99000.28;2308279;76;50729;-76
2023/08/01 11:00:52;;;;;;;;;;;;;;;23.87;51.72;99002.48;2337893;76;51559;-76
2023/08/01 11:03:54;;;;;;;;;;;;;;;23.86;51.70;98998.12;2337171;75;52198;-76
2023/08/01 11:06:56;;;;;;;;;;;;;;;23.86;51.71;99003.53;2300485;76;51400;-76
2023/08/01 11:10:08;;;;;;;;;;;;;;;23.85;51.70;99009.47;2316406;76;50274;-76
2023/08/01 11:13:11;;;;;;;;;;;;;;;23.87;51.69;99005.17;2305220;77;50786;-76
2023/08/01 11:16:12;;;;;;;;;;;;;;;23.87;51.68;99005.17;2304968;77;50388;-76
2023/08/01 11:19:21;;;;;;;;;;;;;;;23.87;51.68;99001.94;2285600;77;51189;-76
2023/08/01 11:22:22;;;;;;;;;;;;;;;23.88;51.65;99004.09;2302375;76;50667;-76
2023/08/01 11:25:37;;;;;;;;;;;;;;;23.88;51.71;99006.80;2278936;77;50736;-77
2023/08/01 11:28:38;;;;;;;;;;;;;;;23.86;51.73;99012.98;2300150;77;51596;-76
2023/08/01 11:31:41;;;;;;;;;;;;;;;23.87;51.71;99018.69;2277726;77;52307;-76
2023/08/01 11:34:46;;;;;;;;;;;;;;;23.88;51.73;99021.65;2278942;77;50324;-75
2023/08/01 11:37:48;;;;;;;;;;;;;;;23.88;51.70;99030.56;2305381;75;52799;-76
2023/08/01 11:40:50;;;;;;;;;;;;;;;23.88;51.67;99027.86;2320770;76;51422;-77
2023/08/01 11:43:52;;;;;;;;;;;;;;;23.89;51.67;99027.32;2309096;76;51715;-76
2023/08/01 11:46:53;;;;;;;;;;;;;;;23.89;51.66;99030.02;2308832;76;50319;-76
2023/08/01 11:49:55;;;;;;;;;;;;;;;23.90;51.67;99026.27;2321293;75;50416;-76
2023/08/01 11:52:56;;;;;;;;;;;;;;;23.90;51.66;99023.02;2321223;75;50316;-75
2023/08/01 11:55:58;;;;;;;;;;;;;;;23.91;51.63;99019.23;2283317;75;51170;-76
2023/08/01 11:58:59;;;;;;;;;;;;;;;23.91;51.65;99025.18;2308896;76;50467;-77
2023/08/01 12:02:01;;;;;;;;;;;;;;;23.92;51.61;99036.28;2308978;76;50119;-76
2023/08/01 12:05:03;;;;;;;;;;;;;;;23.92;51.60;99038.98;2321327;76;50682;-77
2023/08/01 12:08:11;;;;;;;;;;;;;;;23.93;51.59;99037.09;2276329;76;52879;-76
2023/08/01 12:11:22;;;;;;;;;;;;;;;23.93;51.62;99041.95;2322138;76;50814;-76
2023/08/01 12:14:24;;;;;;;;;;;;;;;23.94;51.61;99047.63;2300207;76;51613;-76
2023/08/01 12:17:26;;;;;;;;;;;;;;;23.97;51.57;99057.94;2299811;76;51327;-76
2023/08/01 12:20:27;;;;;;;;;;;;;;;23.99;51.52;99053.06;2300004;76;53081;-77
2023/08/01 12:23:29;;;;;;;;;;;;;;;24.00;51.52;99052.55;2331736;76;50321;-77
2023/08/01 12:26:31;;;;;;;;;;;;;;;23.99;51.56;99049.56;2319974;75;50349;-76
2023/08/01 12:29:33;;;;;;;;;;;;;;;23.98;51.61;99052.80;2300216;76;53879;-77
2023/08/01 12:32:36;;;;;;;;;;;;;;;23.96;51.62;99042.78;2274744;76;52670;-75
2023/08/01 12:35:41;;;;;;;;;;;;;;;23.96;51.66;99046.83;2300956;75;50291;-77
2023/08/01 12:38:42;;;;;;;;;;;;;;;23.99;51.64;99050.36;2334276;76;50694;-75
2023/08/01 12:41:44;;;;;;;;;;;;;;;23.98;51.62;99043.34;2334581;76;51534;-76
2023/08/01 12:44:45;;;;;;;;;;;;;;;24.02;51.59;99041.77;2334664;76;51562;-76
2023/08/01 12:47:47;;;;;;;;;;;;;;;24.03;51.53;99052.84;2300223;76;51464;-76
2023/08/01 12:50:48;;;;;;;;;;;;;;;24.02;51.59;99049.88;2334454;76;50652;-75
2023/08/01 12:53:50;;;;;;;;;;;;;;;24.01;51.62;99048.23;2301395;76;53509;-75
2023/08/01 12:56:52;;;;;;;;;;;;;;;24.00;51.67;99050.66;2249613;76;51759;-75
2023/08/01 12:59:53;;;;;;;;;;;;;;;24.01;51.65;99056.87;2295056;77;50634;-75
2023/08/01 13:02:55;;;;;;;;;;;;;;;24.03;51.62;99058.25;2295110;76;51604;-76
2023/08/01 13:05:58;;;;;;;;;;;;;;;24.03;51.55;99059.59;2274017;76;51564;-75
2023/08/01 13:08:59;;;;;;;;;;;;;;;24.01;51.61;99053.63;2249131;77;51639;-75
2023/08/01 13:12:01;;;;;;;;;;;;;;;23.99;51.65;99054.42;2295376;76;50113;-75
2023/08/01 13:15:02;;;;;;;;;;;;;;;24.02;51.61;99047.69;2295776;77;50423;-76
2023/08/01 13:18:04;;;;;;;;;;;;;;;24.02;51.61;99046.33;2273485;77;51476;-75
2023/08/01 13:21:06;;;;;;;;;;;;;;;24.02;51.58;99043.12;2273999;77;52405;-75
2023/08/01 13:24:07;;;;;;;;;;;;;;;24.02;51.60;99059.33;2294636;76;50729;-75
2023/08/01 13:27:09;;;;;;;;;;;;;;;24.03;51.60;99051.49;2267752;77;50424;-75
2023/08/01 13:30:14;;;;;;;;;;;;;;;24.04;51.50;99061.22;2292518;77;51530;-75
2023/08/01 13:33:14;;;;;;;;;;;;;;;24.04;51.54;99061.22;2262461;77;22380;-76
2023/08/01 13:36:18;;;;;;;;;;;;;;;24.04;51.54;99066.62;2261500;76;50321;-75
2023/08/01 13:39:19;;;;;;;;;;;;;;;24.04;51.54;99062.56;2292534;77;51580;-77
2023/08/01 13:42:21;;;;;;;;;;;;;;;24.05;51.51;99066.92;2292601;77;51449;-77
2023/08/01 13:45:22;;;;;;;;;;;;;;;24.07;51.44;99059.88;2261842;77;50117;-76
2023/08/01 13:48:24;;;;;;;;;;;;;;;24.08;51.43;99060.18;2261731;77;51085;-76
2023/08/01 13:51:26;;;;;;;;;;;;;;;24.08;51.41;99062.34;2262228;77;51438;-76
2023/08/01 13:54:27;;;;;;;;;;;;;;;24.05;51.45;99064.21;2296929;77;51588;-76
2023/08/01 13:57:29;;;;;;;;;;;;;;;24.04;51.55;99059.86;2303091;76;51500;-77
2023/08/01 14:00:31;;;;;;;;;;;;;;;24.00;51.68;99060.66;2300452;77;51467;-76
2023/08/01 14:03:33;;;;;;;;;;;;;;;23.98;51.74;99062.26;2300535;77;50784;-76
2023/08/01 14:06:34;;;;;;;;;;;;;;;23.99;51.75;99061.72;2269423;77;50566;-77
2023/08/01 14:09:36;;;;;;;;;;;;;;;23.99;51.82;99049.02;2269967;77;49586;-77
2023/08/01 14:12:38;;;;;;;;;;;;;;;23.99;51.81;99050.36;2269488;77;50438;-77
2023/08/01 14:15:39;;;;;;;;;;;;;;;24.01;51.81;99054.98;2269784;76;51773;-77
2023/08/01 14:18:42;;;;;;;;;;;;;;;23.98;51.91;99055.50;2269246;77;51394;-77
2023/08/01 14:21:43;;;;;;;;;;;;;;;24.01;51.86;99052.83;2269592;77;51170;-76
2023/08/01 14:24:45;;;;;;;;;;;;;;;24.01;51.86;99052.28;2308000;76;50351;-76
2023/08/01 14:27:47;;;;;;;;;;;;;;;23.98;51.99;99060.09;2323946;75;50694;-77
2023/08/01 14:30:48;;;;;;;;;;;;;;;24.00;51.90;99055.26;2328388;76;50765;-76
2023/08/01 14:33:50;;;;;;;;;;;;;;;23.99;51.90;99047.66;2296335;76;52482;-77
2023/08/01 14:36:51;;;;;;;;;;;;;;;24.00;51.91;99055.26;2296919;76;50675;-76
2023/08/01 14:39:53;;;;;;;;;;;;;;;24.03;51.83;99060.95;2297241;76;50647;-77
2023/08/01 14:42:54;;;;;;;;;;;;;;;24.04;51.79;99054.46;2328350;76;51472;-78
2023/08/01 14:45:57;;;;;;;;;;;;;;;24.05;51.77;99062.86;2271519;75;50197;-77
2023/08/01 14:48:58;;;;;;;;;;;;;;;24.08;51.74;99069.09;2328057;76;51536;-77
2023/08/01 14:52:00;;;;;;;;;;;;;;;24.05;51.84;99064.21;2328379;76;51486;-77
2023/08/01 14:55:01;;;;;;;;;;;;;;;24.06;51.85;99059.08;2292185;76;51500;-78
2023/08/01 14:58:03;;;;;;;;;;;;;;;24.08;51.85;99062.34;2269837;76;52406;-77
2023/08/01 15:01:05;;;;;;;;;;;;;;;24.06;51.88;99069.88;2296585;76;51573;-77
2023/08/01 15:04:07;;;;;;;;;;;;;;;24.06;51.94;99076.64;2328202;76;51456;-77
2023/08/01 15:07:09;;;;;;;;;;;;;;;24.02;52.07;99080.95;2328055;75;50232;-77
2023/08/01 15:10:11;;;;;;;;;;;;;;;24.00;52.11;99085.78;2296389;76;49646;-77
2023/08/01 15:13:12;;;;;;;;;;;;;;;24.00;52.11;99084.98;2296731;76;50682;-77
2023/08/01 15:16:14;;;;;;;;;;;;;;;23.99;52.07;99091.44;2328078;75;50364;-77
2023/08/01 15:19:16;;;;;;;;;;;;;;;23.98;52.07;99091.98;2328318;76;50762;-77
2023/08/01 15:22:18;;;;;;;;;;;;;;;23.97;52.08;99114.67;2328287;76;50644;-77
2023/08/01 15:25:19;;;;;;;;;;;;;;;23.96;52.09;99150.84;2301686;76;50426;-77
2023/08/01 15:28:21;;;;;;;;;;;;;;;23.93;52.08;99166.22;2269371;77;49919;-77
2023/08/01 15:31:22;;;;;;;;;;;;;;;23.93;52.06;99138.40;2269753;77;50525;-76
2023/08/01 15:34:24;;;;;;;;;;;;;;;23.91;52.01;99131.89;2300526;77;50306;-76
2023/08/01 15:37:25;;;;;;;;;;;;;;;23.89;52.05;99140.77;2269721;77;50332;-77
2023/08/01 15:40:27;;;;;;;;;;;;;;;23.89;52.03;99139.42;2300515;77;50653;-76
2023/08/01 15:43:29;;;;;;;;;;;;;;;23.89;52.03;99142.13;2269558;77;50380;-76
2023/08/01 15:46:31;;;;;;;;;;;;;;;23.88;52.00;99141.31;2269477;77;49614;-77
2023/08/01 15:49:32;;;;;;;;;;;;;;;23.88;51.98;99149.42;2269634;76;50388;-78
2023/08/01 15:52:34;;;;;;;;;;;;;;;23.89;51.99;99151.58;2269668;77;50241;-77
2023/08/01 15:55:36;;;;;;;;;;;;;;;23.88;51.96;99151.31;2270912;76;50538;-76